sensor_id;sensor_type;location;lat;lon;timestamp;P1;durP1;ratioP1;P2;durP2;ratioP2
76978;SDS011;65911;47.502;19.148;2023-06-05T00:02:45;3.20;;;1.40;;
76978;SDS011;65911;47.502;19.148;2023-06-05T00:05:48;2.55;;;1.30;;
76978;SDS011;65911;47.502;19.148;2023-06-05T00:08:50;1.83;;;1.00;;
76978;SDS011;65911;47.502;19.148;2023-06-05T00:11:52;2.20;;;1.37;;
76978;SDS011;65911;47.502;19.148;2023-06-05T00:14:55;2.78;;;1.35;;
76978;SDS011;65911;47.502;19.148;2023-06-05T00:17:57;2.35;;;1.40;;
76978;SDS011;65911;47.502;19.148;2023-06-05T00:20:59;2.63;;;1.52;;
76978;SDS011;65911;47.502;19.148;2023-06-05T00:24:02;2.03;;;1.27;;
76978;SDS011;65911;47.502;19.148;2023-06-05T00:27:04;2.00;;;1.40;;
76978;SDS011;65911;47.502;19.148;2023-06-05T00:30:07;2.53;;;1.38;;
76978;SDS011;65911;47.502;19.148;2023-06-05T00:33:11;2.73;;;1.47;;
76978;SDS011;65911;47.502;19.148;2023-06-05T00:36:14;2.95;;;1.20;;
76978;SDS011;65911;47.502;19.148;2023-06-05T00:39:16;2.10;;;1.35;;
76978;SDS011;65911;47.502;19.148;2023-06-05T00:42:21;1.83;;;1.20;;
76978;SDS011;65911;47.502;19.148;2023-06-05T00:45:23;3.45;;;1.30;;
76978;SDS011;65911;47.502;19.148;2023-06-05T00:48:25;2.40;;;1.30;;
76978;SDS011;65911;47.502;19.148;2023-06-05T00:51:28;3.13;;;1.40;;
76978;SDS011;65911;47.502;19.148;2023-06-05T00:54:30;2.13;;;1.38;;
76978;SDS011;65911;47.502;19.148;2023-06-05T00:57:33;3.30;;;1.83;;
76978;SDS011;65911;47.502;19.148;2023-06-05T01:00:36;2.97;;;1.65;;
76978;SDS011;65911;47.502;19.148;2023-06-05T01:03:39;3.33;;;1.17;;
76978;SDS011;65911;47.502;19.148;2023-06-05T01:06:44;2.70;;;1.50;;
76978;SDS011;65911;47.502;19.148;2023-06-05T01:09:47;2.22;;;1.25;;
76978;SDS011;65911;47.502;19.148;2023-06-05T01:16:12;2.03;;;1.20;;
76978;SDS011;65911;47.502;19.148;2023-06-05T01:19:14;2.53;;;1.50;;
76978;SDS011;65911;47.502;19.148;2023-06-05T01:22:16;2.38;;;1.48;;
76978;SDS011;65911;47.502;19.148;2023-06-05T01:25:19;2.00;;;1.48;;
76978;SDS011;65911;47.502;19.148;2023-06-05T01:28:24;2.78;;;1.50;;
76978;SDS011;65911;47.502;19.148;2023-06-05T01:31:27;3.47;;;1.60;;
76978;SDS011;65911;47.502;19.148;2023-06-05T01:34:32;2.47;;;1.47;;
76978;SDS011;65911;47.502;19.148;2023-06-05T01:37:38;3.67;;;1.83;;
76978;SDS011;65911;47.502;19.148;2023-06-05T01:40:43;3.28;;;1.55;;
76978;SDS011;65911;47.502;19.148;2023-06-05T01:43:48;2.50;;;1.67;;
76978;SDS011;65911;47.502;19.148;2023-06-05T01:46:51;4.32;;;1.40;;
76978;SDS011;65911;47.502;19.148;2023-06-05T01:49:54;5.55;;;1.75;;
76978;SDS011;65911;47.502;19.148;2023-06-05T01:52:57;5.47;;;1.48;;
76978;SDS011;65911;47.502;19.148;2023-06-05T01:56:03;2.78;;;1.63;;
76978;SDS011;65911;47.502;19.148;2023-06-05T01:59:06;2.28;;;1.60;;
76978;SDS011;65911;47.502;19.148;2023-06-05T02:02:09;3.72;;;1.88;;
76978;SDS011;65911;47.502;19.148;2023-06-05T02:05:11;2.47;;;1.27;;
76978;SDS011;65911;47.502;19.148;2023-06-05T02:08:17;2.85;;;1.98;;
76978;SDS011;65911;47.502;19.148;2023-06-05T02:11:21;2.65;;;1.50;;
76978;SDS011;65911;47.502;19.148;2023-06-05T02:14:23;2.73;;;1.80;;
76978;SDS011;65911;47.502;19.148;2023-06-05T02:17:26;2.80;;;1.60;;
76978;SDS011;65911;47.502;19.148;2023-06-05T02:20:29;3.05;;;2.03;;
76978;SDS011;65911;47.502;19.148;2023-06-05T02:23:31;2.60;;;1.83;;
76978;SDS011;65911;47.502;19.148;2023-06-05T02:26:34;2.45;;;1.50;;
76978;SDS011;65911;47.502;19.148;2023-06-05T02:29:36;3.05;;;1.58;;
76978;SDS011;65911;47.502;19.148;2023-06-05T02:32:38;2.65;;;1.83;;
76978;SDS011;65911;47.502;19.148;2023-06-05T02:35:46;2.70;;;1.70;;
76978;SDS011;65911;47.502;19.148;2023-06-05T02:38:48;4.45;;;2.03;;
76978;SDS011;65911;47.502;19.148;2023-06-05T02:41:52;5.47;;;1.42;;
76978;SDS011;65911;47.502;19.148;2023-06-05T02:44:55;3.37;;;2.03;;
76978;SDS011;65911;47.502;19.148;2023-06-05T02:47:58;3.20;;;2.00;;
76978;SDS011;65911;47.502;19.148;2023-06-05T02:51:00;3.40;;;2.00;;
76978;SDS011;65911;47.502;19.148;2023-06-05T02:54:02;4.10;;;2.00;;
76978;SDS011;65911;47.502;19.148;2023-06-05T02:57:05;5.53;;;1.75;;
76978;SDS011;65911;47.502;19.148;2023-06-05T03:00:10;2.80;;;1.58;;
76978;SDS011;65911;47.502;19.148;2023-06-05T03:03:24;4.18;;;1.98;;
76978;SDS011;65911;47.502;19.148;2023-06-05T03:06:29;2.77;;;1.70;;
76978;SDS011;65911;47.502;19.148;2023-06-05T03:09:40;3.05;;;1.98;;
76978;SDS011;65911;47.502;19.148;2023-06-05T03:12:42;2.78;;;1.70;;
76978;SDS011;65911;47.502;19.148;2023-06-05T03:15:45;2.67;;;1.70;;
76978;SDS011;65911;47.502;19.148;2023-06-05T03:18:51;3.97;;;1.67;;
76978;SDS011;65911;47.502;19.148;2023-06-05T03:21:55;2.70;;;1.70;;
76978;SDS011;65911;47.502;19.148;2023-06-05T03:24:58;3.80;;;1.90;;
76978;SDS011;65911;47.502;19.148;2023-06-05T03:28:02;4.10;;;2.15;;
76978;SDS011;65911;47.502;19.148;2023-06-05T03:31:04;2.85;;;1.98;;
76978;SDS011;65911;47.502;19.148;2023-06-05T03:34:11;4.78;;;1.80;;
76978;SDS011;65911;47.502;19.148;2023-06-05T03:37:14;3.40;;;1.93;;
76978;SDS011;65911;47.502;19.148;2023-06-05T03:40:19;3.10;;;1.75;;
76978;SDS011;65911;47.502;19.148;2023-06-05T03:43:21;5.13;;;1.90;;
76978;SDS011;65911;47.502;19.148;2023-06-05T03:46:27;3.47;;;1.67;;
76978;SDS011;65911;47.502;19.148;2023-06-05T03:49:32;3.17;;;1.80;;
76978;SDS011;65911;47.502;19.148;2023-06-05T03:52:34;3.25;;;1.45;;
76978;SDS011;65911;47.502;19.148;2023-06-05T03:55:39;4.25;;;2.08;;
76978;SDS011;65911;47.502;19.148;2023-06-05T03:58:57;3.22;;;1.27;;
76978;SDS011;65911;47.502;19.148;2023-06-05T04:02:00;4.75;;;1.80;;
76978;SDS011;65911;47.502;19.148;2023-06-05T04:05:04;2.35;;;1.83;;
76978;SDS011;65911;47.502;19.148;2023-06-05T04:08:07;3.03;;;1.60;;
76978;SDS011;65911;47.502;19.148;2023-06-05T04:11:10;4.07;;;1.70;;
76978;SDS011;65911;47.502;19.148;2023-06-05T04:14:14;3.17;;;1.90;;
76978;SDS011;65911;47.502;19.148;2023-06-05T04:17:17;4.60;;;2.07;;
76978;SDS011;65911;47.502;19.148;2023-06-05T04:20:19;4.13;;;1.77;;
76978;SDS011;65911;47.502;19.148;2023-06-05T04:23:22;2.30;;;1.70;;
76978;SDS011;65911;47.502;19.148;2023-06-05T04:26:24;3.50;;;1.88;;
76978;SDS011;65911;47.502;19.148;2023-06-05T04:29:28;3.28;;;1.70;;
76978;SDS011;65911;47.502;19.148;2023-06-05T04:32:30;3.65;;;2.35;;
76978;SDS011;65911;47.502;19.148;2023-06-05T04:35:36;6.88;;;2.35;;
76978;SDS011;65911;47.502;19.148;2023-06-05T04:38:38;3.07;;;1.77;;
76978;SDS011;65911;47.502;19.148;2023-06-05T04:41:41;3.80;;;2.17;;
76978;SDS011;65911;47.502;19.148;2023-06-05T04:44:58;3.20;;;1.55;;
76978;SDS011;65911;47.502;19.148;2023-06-05T04:48:01;2.17;;;1.50;;
76978;SDS011;65911;47.502;19.148;2023-06-05T04:51:04;4.63;;;2.40;;
76978;SDS011;65911;47.502;19.148;2023-06-05T04:54:06;4.50;;;2.05;;
76978;SDS011;65911;47.502;19.148;2023-06-05T04:57:09;5.38;;;1.98;;
76978;SDS011;65911;47.502;19.148;2023-06-05T05:00:12;2.88;;;1.80;;
76978;SDS011;65911;47.502;19.148;2023-06-05T05:03:15;4.93;;;2.00;;
76978;SDS011;65911;47.502;19.148;2023-06-05T05:06:20;6.07;;;2.15;;
76978;SDS011;65911;47.502;19.148;2023-06-05T05:09:24;4.60;;;1.97;;
76978;SDS011;65911;47.502;19.148;2023-06-05T05:12:27;5.88;;;2.15;;
76978;SDS011;65911;47.502;19.148;2023-06-05T05:15:30;4.20;;;2.10;;
76978;SDS011;65911;47.502;19.148;2023-06-05T05:18:34;3.40;;;2.10;;
76978;SDS011;65911;47.502;19.148;2023-06-05T05:21:36;3.38;;;1.73;;
76978;SDS011;65911;47.502;19.148;2023-06-05T05:24:39;3.75;;;2.13;;
76978;SDS011;65911;47.502;19.148;2023-06-05T05:27:43;2.83;;;1.80;;
76978;SDS011;65911;47.502;19.148;2023-06-05T05:30:45;3.80;;;1.63;;
76978;SDS011;65911;47.502;19.148;2023-06-05T05:33:48;3.92;;;2.03;;
76978;SDS011;65911;47.502;19.148;2023-06-05T05:36:50;3.22;;;1.88;;
76978;SDS011;65911;47.502;19.148;2023-06-05T05:39:53;3.53;;;1.67;;
76978;SDS011;65911;47.502;19.148;2023-06-05T05:42:56;2.97;;;2.20;;
76978;SDS011;65911;47.502;19.148;2023-06-05T05:45:58;5.57;;;2.92;;
76978;SDS011;65911;47.502;19.148;2023-06-05T05:49:00;3.17;;;2.00;;
76978;SDS011;65911;47.502;19.148;2023-06-05T05:52:03;4.65;;;1.80;;
76978;SDS011;65911;47.502;19.148;2023-06-05T05:55:05;4.70;;;2.00;;
76978;SDS011;65911;47.502;19.148;2023-06-05T05:58:15;6.15;;;2.00;;
76978;SDS011;65911;47.502;19.148;2023-06-05T06:01:18;3.92;;;1.75;;
76978;SDS011;65911;47.502;19.148;2023-06-05T06:04:20;5.50;;;2.10;;
76978;SDS011;65911;47.502;19.148;2023-06-05T06:07:23;5.20;;;2.47;;
76978;SDS011;65911;47.502;19.148;2023-06-05T06:10:25;2.50;;;1.77;;
76978;SDS011;65911;47.502;19.148;2023-06-05T06:13:30;5.10;;;2.40;;
76978;SDS011;65911;47.502;19.148;2023-06-05T06:16:35;4.32;;;2.03;;
76978;SDS011;65911;47.502;19.148;2023-06-05T06:19:39;5.17;;;2.30;;
76978;SDS011;65911;47.502;19.148;2023-06-05T06:22:45;5.18;;;2.00;;
76978;SDS011;65911;47.502;19.148;2023-06-05T06:25:48;2.88;;;1.85;;
76978;SDS011;65911;47.502;19.148;2023-06-05T06:28:52;6.07;;;2.10;;
76978;SDS011;65911;47.502;19.148;2023-06-05T06:31:56;4.63;;;2.30;;
76978;SDS011;65911;47.502;19.148;2023-06-05T06:34:59;4.82;;;2.22;;
76978;SDS011;65911;47.502;19.148;2023-06-05T06:38:01;5.05;;;2.30;;
76978;SDS011;65911;47.502;19.148;2023-06-05T06:41:05;3.40;;;1.70;;
76978;SDS011;65911;47.502;19.148;2023-06-05T06:44:07;3.72;;;2.00;;
76978;SDS011;65911;47.502;19.148;2023-06-05T06:47:10;2.80;;;1.50;;
76978;SDS011;65911;47.502;19.148;2023-06-05T06:50:13;4.60;;;1.90;;
76978;SDS011;65911;47.502;19.148;2023-06-05T06:53:16;3.78;;;2.00;;
76978;SDS011;65911;47.502;19.148;2023-06-05T06:56:18;3.03;;;1.80;;
76978;SDS011;65911;47.502;19.148;2023-06-05T06:59:24;4.97;;;1.70;;
76978;SDS011;65911;47.502;19.148;2023-06-05T07:02:31;3.67;;;2.40;;
76978;SDS011;65911;47.502;19.148;2023-06-05T07:05:35;6.50;;;2.50;;
76978;SDS011;65911;47.502;19.148;2023-06-05T07:08:39;3.85;;;2.50;;
76978;SDS011;65911;47.502;19.148;2023-06-05T07:11:46;3.23;;;2.03;;
76978;SDS011;65911;47.502;19.148;2023-06-05T07:14:52;7.18;;;2.38;;
76978;SDS011;65911;47.502;19.148;2023-06-05T07:17:57;5.00;;;2.47;;
76978;SDS011;65911;47.502;19.148;2023-06-05T07:21:03;4.17;;;2.20;;
76978;SDS011;65911;47.502;19.148;2023-06-05T07:24:09;4.72;;;2.30;;
76978;SDS011;65911;47.502;19.148;2023-06-05T07:27:12;4.78;;;2.58;;
76978;SDS011;65911;47.502;19.148;2023-06-05T07:30:15;6.20;;;2.97;;
76978;SDS011;65911;47.502;19.148;2023-06-05T07:33:17;3.28;;;2.00;;
76978;SDS011;65911;47.502;19.148;2023-06-05T07:36:33;8.95;;;2.50;;
76978;SDS011;65911;47.502;19.148;2023-06-05T07:39:35;6.65;;;2.33;;
76978;SDS011;65911;47.502;19.148;2023-06-05T07:42:38;4.17;;;1.90;;
76978;SDS011;65911;47.502;19.148;2023-06-05T07:45:43;3.63;;;2.00;;
76978;SDS011;65911;47.502;19.148;2023-06-05T07:48:45;4.00;;;1.80;;
76978;SDS011;65911;47.502;19.148;2023-06-05T07:51:47;4.83;;;2.13;;
76978;SDS011;65911;47.502;19.148;2023-06-05T07:54:55;5.05;;;2.10;;
76978;SDS011;65911;47.502;19.148;2023-06-05T07:58:00;5.70;;;2.20;;
76978;SDS011;65911;47.502;19.148;2023-06-05T08:01:03;6.82;;;2.28;;
76978;SDS011;65911;47.502;19.148;2023-06-05T08:04:10;4.07;;;2.35;;
76978;SDS011;65911;47.502;19.148;2023-06-05T08:07:14;4.18;;;2.45;;
76978;SDS011;65911;47.502;19.148;2023-06-05T08:10:16;5.82;;;2.70;;
76978;SDS011;65911;47.502;19.148;2023-06-05T08:13:19;3.60;;;2.30;;
76978;SDS011;65911;47.502;19.148;2023-06-05T08:16:22;5.55;;;2.40;;
76978;SDS011;65911;47.502;19.148;2023-06-05T08:19:30;5.25;;;2.20;;
76978;SDS011;65911;47.502;19.148;2023-06-05T08:22:34;11.30;;;2.70;;
76978;SDS011;65911;47.502;19.148;2023-06-05T08:25:39;4.82;;;2.30;;
76978;SDS011;65911;47.502;19.148;2023-06-05T08:28:41;5.25;;;2.25;;
76978;SDS011;65911;47.502;19.148;2023-06-05T08:31:46;5.22;;;2.50;;
76978;SDS011;65911;47.502;19.148;2023-06-05T08:34:54;4.68;;;2.17;;
76978;SDS011;65911;47.502;19.148;2023-06-05T08:37:59;4.88;;;2.35;;
76978;SDS011;65911;47.502;19.148;2023-06-05T08:41:05;4.85;;;2.28;;
76978;SDS011;65911;47.502;19.148;2023-06-05T08:44:14;4.30;;;2.57;;
76978;SDS011;65911;47.502;19.148;2023-06-05T08:47:16;3.85;;;2.42;;
76978;SDS011;65911;47.502;19.148;2023-06-05T08:50:22;4.88;;;2.28;;
76978;SDS011;65911;47.502;19.148;2023-06-05T08:53:25;5.33;;;2.47;;
76978;SDS011;65911;47.502;19.148;2023-06-05T08:56:30;4.85;;;2.65;;
76978;SDS011;65911;47.502;19.148;2023-06-05T08:59:35;5.07;;;2.70;;
76978;SDS011;65911;47.502;19.148;2023-06-05T09:02:46;5.32;;;2.92;;
76978;SDS011;65911;47.502;19.148;2023-06-05T09:05:51;3.78;;;1.95;;
76978;SDS011;65911;47.502;19.148;2023-06-05T09:08:54;5.00;;;2.75;;
76978;SDS011;65911;47.502;19.148;2023-06-05T09:12:05;5.28;;;2.20;;
76978;SDS011;65911;47.502;19.148;2023-06-05T09:15:21;4.20;;;2.17;;
76978;SDS011;65911;47.502;19.148;2023-06-05T09:18:26;6.18;;;2.70;;
76978;SDS011;65911;47.502;19.148;2023-06-05T09:21:31;5.95;;;2.03;;
76978;SDS011;65911;47.502;19.148;2023-06-05T09:24:36;5.20;;;2.27;;
76978;SDS011;65911;47.502;19.148;2023-06-05T09:27:41;5.65;;;2.20;;
76978;SDS011;65911;47.502;19.148;2023-06-05T09:30:55;3.67;;;1.92;;
76978;SDS011;65911;47.502;19.148;2023-06-05T09:34:06;5.35;;;2.30;;
76978;SDS011;65911;47.502;19.148;2023-06-05T09:37:09;7.90;;;2.10;;
76978;SDS011;65911;47.502;19.148;2023-06-05T09:40:15;4.50;;;2.33;;
76978;SDS011;65911;47.502;19.148;2023-06-05T09:43:22;3.65;;;2.40;;
76978;SDS011;65911;47.502;19.148;2023-06-05T09:46:28;4.37;;;2.10;;
76978;SDS011;65911;47.502;19.148;2023-06-05T09:49:32;5.28;;;2.25;;
76978;SDS011;65911;47.502;19.148;2023-06-05T09:52:48;5.55;;;2.10;;
76978;SDS011;65911;47.502;19.148;2023-06-05T09:55:51;3.80;;;2.00;;
76978;SDS011;65911;47.502;19.148;2023-06-05T09:58:55;3.88;;;1.95;;
76978;SDS011;65911;47.502;19.148;2023-06-05T10:02:25;3.25;;;1.90;;
76978;SDS011;65911;47.502;19.148;2023-06-05T10:05:48;3.78;;;2.42;;
76978;SDS011;65911;47.502;19.148;2023-06-05T10:09:07;3.97;;;2.05;;
76978;SDS011;65911;47.502;19.148;2023-06-05T10:12:15;7.05;;;2.25;;
76978;SDS011;65911;47.502;19.148;2023-06-05T10:15:17;3.60;;;2.40;;
76978;SDS011;65911;47.502;19.148;2023-06-05T10:18:21;7.00;;;2.03;;
76978;SDS011;65911;47.502;19.148;2023-06-05T10:21:25;4.35;;;2.40;;
76978;SDS011;65911;47.502;19.148;2023-06-05T10:24:32;4.95;;;2.35;;
76978;SDS011;65911;47.502;19.148;2023-06-05T10:41:19;4.72;;;1.52;;
76978;SDS011;65911;47.502;19.148;2023-06-05T10:44:41;3.25;;;1.75;;
76978;SDS011;65911;47.502;19.148;2023-06-05T10:47:48;2.92;;;1.50;;
76978;SDS011;65911;47.502;19.148;2023-06-05T10:50:50;4.53;;;1.70;;
76978;SDS011;65911;47.502;19.148;2023-06-05T10:53:53;4.35;;;1.65;;
76978;SDS011;65911;47.502;19.148;2023-06-05T10:57:05;3.20;;;1.80;;
76978;SDS011;65911;47.502;19.148;2023-06-05T11:00:16;4.67;;;1.30;;
76978;SDS011;65911;47.502;19.148;2023-06-05T11:03:19;2.88;;;1.40;;
76978;SDS011;65911;47.502;19.148;2023-06-05T11:06:35;4.18;;;1.55;;
76978;SDS011;65911;47.502;19.148;2023-06-05T11:13:05;4.93;;;2.22;;
76978;SDS011;65911;47.502;19.148;2023-06-05T11:16:19;3.47;;;1.60;;
76978;SDS011;65911;47.502;19.148;2023-06-05T11:19:34;3.70;;;1.63;;
76978;SDS011;65911;47.502;19.148;2023-06-05T11:26:46;3.47;;;1.65;;
76978;SDS011;65911;47.502;19.148;2023-06-05T11:30:05;3.55;;;1.77;;
76978;SDS011;65911;47.502;19.148;2023-06-05T11:33:21;3.75;;;1.55;;
76978;SDS011;65911;47.502;19.148;2023-06-05T11:36:40;3.20;;;1.60;;
76978;SDS011;65911;47.502;19.148;2023-06-05T11:39:54;3.55;;;1.63;;
76978;SDS011;65911;47.502;19.148;2023-06-05T11:43:26;5.55;;;1.92;;
76978;SDS011;65911;47.502;19.148;2023-06-05T11:46:36;2.67;;;1.48;;
76978;SDS011;65911;47.502;19.148;2023-06-05T11:49:45;3.85;;;1.40;;
76978;SDS011;65911;47.502;19.148;2023-06-05T11:53:00;2.85;;;1.88;;
76978;SDS011;65911;47.502;19.148;2023-06-05T11:56:12;4.25;;;1.92;;
76978;SDS011;65911;47.502;19.148;2023-06-05T11:59:17;3.43;;;1.50;;
76978;SDS011;65911;47.502;19.148;2023-06-05T12:02:22;2.10;;;1.33;;
76978;SDS011;65911;47.502;19.148;2023-06-05T12:05:25;3.70;;;1.70;;
76978;SDS011;65911;47.502;19.148;2023-06-05T12:08:29;2.22;;;1.60;;
76978;SDS011;65911;47.502;19.148;2023-06-05T12:11:35;2.55;;;1.52;;
76978;SDS011;65911;47.502;19.148;2023-06-05T12:14:39;5.07;;;1.63;;
76978;SDS011;65911;47.502;19.148;2023-06-05T12:17:52;3.55;;;1.90;;
76978;SDS011;65911;47.502;19.148;2023-06-05T12:20:56;3.40;;;1.50;;
76978;SDS011;65911;47.502;19.148;2023-06-05T12:24:02;4.00;;;1.70;;
76978;SDS011;65911;47.502;19.148;2023-06-05T12:27:05;4.57;;;1.60;;
76978;SDS011;65911;47.502;19.148;2023-06-05T12:30:08;4.13;;;1.55;;
76978;SDS011;65911;47.502;19.148;2023-06-05T12:33:11;3.60;;;1.53;;
76978;SDS011;65911;47.502;19.148;2023-06-05T12:36:14;3.45;;;1.50;;
76978;SDS011;65911;47.502;19.148;2023-06-05T12:39:16;2.80;;;1.45;;
76978;SDS011;65911;47.502;19.148;2023-06-05T12:42:19;2.70;;;1.83;;
76978;SDS011;65911;47.502;19.148;2023-06-05T12:45:21;5.10;;;1.73;;
76978;SDS011;65911;47.502;19.148;2023-06-05T12:48:24;3.35;;;1.40;;
76978;SDS011;65911;47.502;19.148;2023-06-05T12:51:27;2.72;;;1.55;;
76978;SDS011;65911;47.502;19.148;2023-06-05T12:54:33;3.80;;;1.52;;
76978;SDS011;65911;47.502;19.148;2023-06-05T12:57:35;3.20;;;1.60;;
76978;SDS011;65911;47.502;19.148;2023-06-05T13:00:38;4.20;;;1.48;;
76978;SDS011;65911;47.502;19.148;2023-06-05T13:03:40;3.07;;;1.80;;
76978;SDS011;65911;47.502;19.148;2023-06-05T13:06:43;4.20;;;1.38;;
76978;SDS011;65911;47.502;19.148;2023-06-05T13:09:46;4.45;;;1.65;;
76978;SDS011;65911;47.502;19.148;2023-06-05T13:12:48;2.70;;;1.70;;
76978;SDS011;65911;47.502;19.148;2023-06-05T13:15:51;2.47;;;1.60;;
76978;SDS011;65911;47.502;19.148;2023-06-05T13:18:53;2.22;;;1.13;;
76978;SDS011;65911;47.502;19.148;2023-06-05T13:21:55;3.65;;;1.58;;
76978;SDS011;65911;47.502;19.148;2023-06-05T13:24:58;2.83;;;1.30;;
76978;SDS011;65911;47.502;19.148;2023-06-05T13:28:03;5.63;;;1.77;;
76978;SDS011;65911;47.502;19.148;2023-06-05T13:31:05;4.03;;;1.63;;
76978;SDS011;65911;47.502;19.148;2023-06-05T13:34:07;2.70;;;1.50;;
76978;SDS011;65911;47.502;19.148;2023-06-05T13:37:10;4.27;;;1.63;;
76978;SDS011;65911;47.502;19.148;2023-06-05T13:40:17;4.32;;;1.60;;
76978;SDS011;65911;47.502;19.148;2023-06-05T13:43:23;3.38;;;1.55;;
76978;SDS011;65911;47.502;19.148;2023-06-05T13:46:25;4.72;;;1.75;;
76978;SDS011;65911;47.502;19.148;2023-06-05T13:49:29;3.67;;;1.48;;
76978;SDS011;65911;47.502;19.148;2023-06-05T13:52:31;3.00;;;1.25;;
76978;SDS011;65911;47.502;19.148;2023-06-05T13:55:34;3.38;;;1.75;;
76978;SDS011;65911;47.502;19.148;2023-06-05T13:58:36;3.37;;;1.80;;
76978;SDS011;65911;47.502;19.148;2023-06-05T14:01:38;2.85;;;1.40;;
76978;SDS011;65911;47.502;19.148;2023-06-05T14:04:43;3.90;;;1.65;;
76978;SDS011;65911;47.502;19.148;2023-06-05T14:07:45;2.03;;;1.50;;
76978;SDS011;65911;47.502;19.148;2023-06-05T14:10:51;4.83;;;1.30;;
76978;SDS011;65911;47.502;19.148;2023-06-05T14:13:53;3.13;;;1.45;;
76978;SDS011;65911;47.502;19.148;2023-06-05T14:16:55;3.20;;;1.70;;
76978;SDS011;65911;47.502;19.148;2023-06-05T14:19:58;2.78;;;1.77;;
76978;SDS011;65911;47.502;19.148;2023-06-05T14:23:00;3.72;;;1.60;;
76978;SDS011;65911;47.502;19.148;2023-06-05T14:26:04;3.78;;;1.80;;
76978;SDS011;65911;47.502;19.148;2023-06-05T14:29:06;3.85;;;2.00;;
76978;SDS011;65911;47.502;19.148;2023-06-05T14:32:08;2.93;;;1.60;;
76978;SDS011;65911;47.502;19.148;2023-06-05T14:35:11;3.88;;;1.95;;
76978;SDS011;65911;47.502;19.148;2023-06-05T14:38:13;3.88;;;2.10;;
76978;SDS011;65911;47.502;19.148;2023-06-05T14:41:15;3.93;;;1.97;;
76978;SDS011;65911;47.502;19.148;2023-06-05T14:44:17;3.30;;;1.98;;
76978;SDS011;65911;47.502;19.148;2023-06-05T14:47:24;4.63;;;2.03;;
76978;SDS011;65911;47.502;19.148;2023-06-05T14:50:27;4.60;;;2.00;;
76978;SDS011;65911;47.502;19.148;2023-06-05T14:53:29;5.30;;;1.73;;
76978;SDS011;65911;47.502;19.148;2023-06-05T14:56:34;3.20;;;1.70;;
76978;SDS011;65911;47.502;19.148;2023-06-05T14:59:36;7.50;;;1.77;;
76978;SDS011;65911;47.502;19.148;2023-06-05T15:02:38;3.42;;;2.03;;
76978;SDS011;65911;47.502;19.148;2023-06-05T15:05:41;4.05;;;1.95;;
76978;SDS011;65911;47.502;19.148;2023-06-05T15:08:43;4.25;;;2.03;;
76978;SDS011;65911;47.502;19.148;2023-06-05T15:11:46;2.78;;;1.65;;
76978;SDS011;65911;47.502;19.148;2023-06-05T15:14:48;2.60;;;1.43;;
76978;SDS011;65911;47.502;19.148;2023-06-05T15:17:50;5.15;;;2.17;;
76978;SDS011;65911;47.502;19.148;2023-06-05T15:20:55;2.10;;;1.60;;
76978;SDS011;65911;47.502;19.148;2023-06-05T15:23:58;2.70;;;1.60;;
76978;SDS011;65911;47.502;19.148;2023-06-05T15:27:00;2.88;;;1.67;;
76978;SDS011;65911;47.502;19.148;2023-06-05T15:30:03;2.97;;;1.88;;
76978;SDS011;65911;47.502;19.148;2023-06-05T15:33:05;3.75;;;1.70;;
76978;SDS011;65911;47.502;19.148;2023-06-05T15:36:07;3.10;;;1.88;;
76978;SDS011;65911;47.502;19.148;2023-06-05T15:39:09;5.82;;;1.80;;
76978;SDS011;65911;47.502;19.148;2023-06-05T15:42:18;4.07;;;1.65;;
76978;SDS011;65911;47.502;19.148;2023-06-05T15:45:28;7.43;;;1.50;;
76978;SDS011;65911;47.502;19.148;2023-06-05T15:48:30;3.10;;;1.98;;
76978;SDS011;65911;47.502;19.148;2023-06-05T15:51:33;5.72;;;1.95;;
76978;SDS011;65911;47.502;19.148;2023-06-05T15:54:35;4.53;;;1.50;;
76978;SDS011;65911;47.502;19.148;2023-06-05T15:57:55;4.87;;;1.80;;
76978;SDS011;65911;47.502;19.148;2023-06-05T16:00:57;3.30;;;1.83;;
76978;SDS011;65911;47.502;19.148;2023-06-05T16:04:00;3.53;;;1.50;;
76978;SDS011;65911;47.502;19.148;2023-06-05T16:07:02;3.67;;;1.73;;
76978;SDS011;65911;47.502;19.148;2023-06-05T16:10:05;3.80;;;1.83;;
76978;SDS011;65911;47.502;19.148;2023-06-05T16:13:07;2.88;;;1.48;;
76978;SDS011;65911;47.502;19.148;2023-06-05T16:16:12;3.85;;;1.60;;
76978;SDS011;65911;47.502;19.148;2023-06-05T16:19:15;5.73;;;1.67;;
76978;SDS011;65911;47.502;19.148;2023-06-05T16:22:17;5.13;;;1.85;;
76978;SDS011;65911;47.502;19.148;2023-06-05T16:25:20;6.43;;;1.60;;
76978;SDS011;65911;47.502;19.148;2023-06-05T16:28:22;4.07;;;1.70;;
76978;SDS011;65911;47.502;19.148;2023-06-05T16:31:24;2.67;;;1.60;;
76978;SDS011;65911;47.502;19.148;2023-06-05T16:34:26;3.65;;;1.75;;
76978;SDS011;65911;47.502;19.148;2023-06-05T16:37:29;2.97;;;1.60;;
76978;SDS011;65911;47.502;19.148;2023-06-05T16:40:31;3.53;;;1.85;;
76978;SDS011;65911;47.502;19.148;2023-06-05T16:43:34;3.73;;;1.57;;
76978;SDS011;65911;47.502;19.148;2023-06-05T16:46:39;3.33;;;1.83;;
76978;SDS011;65911;47.502;19.148;2023-06-05T16:49:46;3.00;;;1.65;;
76978;SDS011;65911;47.502;19.148;2023-06-05T16:52:48;5.47;;;1.70;;
76978;SDS011;65911;47.502;19.148;2023-06-05T16:55:50;3.30;;;1.80;;
76978;SDS011;65911;47.502;19.148;2023-06-05T16:58:53;4.38;;;1.50;;
76978;SDS011;65911;47.502;19.148;2023-06-05T17:01:55;3.47;;;1.77;;
76978;SDS011;65911;47.502;19.148;2023-06-05T17:04:57;3.60;;;1.63;;
76978;SDS011;65911;47.502;19.148;2023-06-05T17:08:00;5.32;;;1.65;;
76978;SDS011;65911;47.502;19.148;2023-06-05T17:11:06;6.82;;;1.60;;
76978;SDS011;65911;47.502;19.148;2023-06-05T17:14:08;5.23;;;1.60;;
76978;SDS011;65911;47.502;19.148;2023-06-05T17:17:10;7.15;;;1.95;;
76978;SDS011;65911;47.502;19.148;2023-06-05T17:20:13;6.00;;;1.90;;
76978;SDS011;65911;47.502;19.148;2023-06-05T17:23:15;5.05;;;1.73;;
76978;SDS011;65911;47.502;19.148;2023-06-05T17:26:17;7.07;;;1.90;;
76978;SDS011;65911;47.502;19.148;2023-06-05T17:29:19;3.63;;;1.80;;
76978;SDS011;65911;47.502;19.148;2023-06-05T17:32:22;4.18;;;2.10;;
76978;SDS011;65911;47.502;19.148;2023-06-05T17:35:24;4.85;;;2.05;;
76978;SDS011;65911;47.502;19.148;2023-06-05T17:38:26;3.80;;;1.55;;
76978;SDS011;65911;47.502;19.148;2023-06-05T17:41:29;4.55;;;1.90;;
76978;SDS011;65911;47.502;19.148;2023-06-05T17:44:31;3.15;;;2.08;;
76978;SDS011;65911;47.502;19.148;2023-06-05T17:47:34;3.70;;;1.70;;
76978;SDS011;65911;47.502;19.148;2023-06-05T17:50:37;4.60;;;2.05;;
76978;SDS011;65911;47.502;19.148;2023-06-05T17:53:39;3.92;;;2.03;;
76978;SDS011;65911;47.502;19.148;2023-06-05T17:56:41;3.40;;;2.07;;
76978;SDS011;65911;47.502;19.148;2023-06-05T17:59:44;6.15;;;2.80;;
76978;SDS011;65911;47.502;19.148;2023-06-05T18:02:46;6.40;;;2.00;;
76978;SDS011;65911;47.502;19.148;2023-06-05T18:05:51;6.60;;;2.60;;
76978;SDS011;65911;47.502;19.148;2023-06-05T18:08:55;5.75;;;2.22;;
76978;SDS011;65911;47.502;19.148;2023-06-05T18:12:01;3.90;;;1.95;;
76978;SDS011;65911;47.502;19.148;2023-06-05T18:15:04;4.82;;;1.88;;
76978;SDS011;65911;47.502;19.148;2023-06-05T18:18:07;2.80;;;1.80;;
76978;SDS011;65911;47.502;19.148;2023-06-05T18:21:10;4.65;;;2.00;;
76978;SDS011;65911;47.502;19.148;2023-06-05T18:24:14;4.78;;;2.05;;
76978;SDS011;65911;47.502;19.148;2023-06-05T18:27:17;2.83;;;1.90;;
76978;SDS011;65911;47.502;19.148;2023-06-05T18:30:19;3.50;;;1.70;;
76978;SDS011;65911;47.502;19.148;2023-06-05T18:33:22;2.92;;;1.80;;
76978;SDS011;65911;47.502;19.148;2023-06-05T18:36:24;4.38;;;2.13;;
76978;SDS011;65911;47.502;19.148;2023-06-05T18:39:26;4.97;;;2.00;;